createdAt,value
2023-03-12T00:05:24.928Z,100.00
2023-03-12T00:15:29.690Z,100.00
2023-03-12T00:25:39.041Z,100.00
2023-03-12T00:35:43.490Z,100.00
2023-03-12T00:45:46.160Z,100.00
2023-03-12T00:55:53.517Z,100.00
2023-03-12T01:06:03.888Z,100.00
2023-03-12T01:16:09.365Z,100.00
2023-03-12T01:26:11.818Z,100.00
2023-03-12T01:36:24.636Z,100.00
2023-03-12T01:46:48.963Z,100.00
2023-03-12T01:57:00.128Z,100.00
2023-03-12T02:07:11.588Z,100.00
2023-03-12T02:17:14.510Z,100.00
2023-03-12T02:27:22.614Z,100.00
2023-03-12T02:37:27.115Z,100.00
2023-03-12T02:47:29.350Z,100.00
2023-03-12T02:57:39.927Z,100.00
2023-03-12T03:07:46.056Z,100.00
2023-03-12T03:17:48.356Z,100.00
2023-03-12T03:27:52.899Z,100.00
2023-03-12T03:37:58.279Z,100.00
2023-03-12T03:48:01.275Z,100.00
2023-03-12T03:58:07.098Z,100.00
2023-03-12T04:08:13.259Z,100.00
2023-03-12T04:18:18.307Z,100.00
2023-03-12T04:28:22.797Z,100.00
2023-03-12T04:38:28.864Z,100.00
2023-03-12T04:48:34.525Z,100.00
2023-03-12T04:58:39.448Z,100.00
2023-03-12T05:08:44.692Z,100.00
2023-03-12T05:18:51.805Z,100.00
2023-03-12T05:28:54.947Z,100.00
2023-03-12T05:38:59.340Z,100.00
2023-03-12T05:49:08.979Z,100.00
2023-03-12T05:59:15.899Z,100.00
2023-03-12T06:09:26.055Z,100.00
2023-03-12T06:19:36.791Z,100.00
2023-03-12T06:29:41.364Z,100.00
2023-03-12T06:39:48.329Z,100.00
2023-03-12T06:49:50.452Z,100.00
2023-03-12T06:59:54.969Z,100.00
2023-03-12T07:10:00.075Z,100.00
2023-03-12T07:20:09.490Z,100.00
2023-03-12T07:30:16.743Z,100.00
2023-03-12T07:40:23.830Z,100.00
2023-03-12T07:50:28.123Z,100.00
2023-03-12T08:00:34.738Z,91.27
2023-03-12T08:10:37.382Z,80.13
2023-03-12T08:20:46.768Z,82.26
2023-03-12T08:30:56.417Z,81.46
2023-03-12T08:41:00.205Z,76.18
2023-03-12T08:51:09.114Z,69.74
2023-03-12T09:01:14.198Z,68.53
2023-03-12T09:11:18.933Z,65.05
2023-03-12T09:21:21.559Z,60.37
2023-03-12T09:31:26.061Z,58.14
2023-03-12T09:41:34.434Z,55.25
2023-03-12T09:51:43.806Z,54.97
2023-03-12T10:01:53.503Z,53.54
2023-03-12T10:12:08.569Z,54.52
2023-03-12T10:22:17.722Z,55.05
2023-03-12T10:32:25.285Z,54.48
2023-03-12T10:42:30.928Z,55.27
2023-03-12T10:52:33.037Z,54.48
2023-03-12T11:02:42.367Z,54.84
2023-03-12T11:12:57.002Z,52.95
2023-03-12T11:23:14.252Z,50.31
2023-03-12T11:33:19.886Z,47.46
2023-03-12T11:43:43.581Z,47.53
2023-03-12T11:54:06.514Z,47.40
2023-03-12T12:04:36.546Z,46.70
2023-03-12T12:14:56.799Z,46.87
2023-03-12T12:25:26.528Z,45.85
2023-03-12T12:35:38.756Z,46.79
2023-03-12T12:45:42.021Z,46.23
2023-03-12T12:56:00.641Z,45.75
2023-03-12T13:06:09.395Z,45.81
2023-03-12T13:16:34.015Z,44.88
2023-03-12T13:26:56.780Z,47.09
2023-03-12T13:37:03.927Z,45.09
2023-03-12T13:47:13.191Z,45.23
2023-03-12T13:57:49.262Z,45.36
2023-03-12T14:08:02.899Z,45.44
2023-03-12T14:18:14.245Z,46.22
2023-03-12T14:28:20.891Z,45.59
2023-03-12T14:38:34.865Z,45.25
2023-03-12T14:48:37.660Z,45.75
2023-03-12T14:58:48.722Z,46.39
2023-03-12T15:08:53.344Z,48.25
2023-03-12T15:18:55.773Z,49.45
2023-03-12T15:29:03.627Z,50.16
2023-03-12T15:39:21.686Z,51.02
2023-03-12T15:49:29.883Z,51.55
2023-03-12T15:59:33.793Z,51.61
2023-03-12T16:09:36.251Z,51.15
2023-03-12T16:19:40.873Z,51.98
2023-03-12T16:29:43.260Z,53.02
2023-03-12T16:39:48.944Z,54.09
2023-03-12T16:49:55.641Z,55.80
2023-03-12T17:00:01.466Z,57.19
2023-03-12T17:10:04.281Z,59.16
2023-03-12T17:20:13.967Z,61.25
2023-03-12T17:30:19.402Z,62.90
2023-03-12T17:40:23.997Z,63.17
2023-03-12T17:50:26.164Z,64.40
2023-03-12T18:00:28.228Z,65.80
2023-03-12T18:10:30.768Z,67.96
2023-03-12T18:20:39.367Z,68.20
2023-03-12T18:30:46.859Z,69.56
2023-03-12T18:40:51.485Z,69.37
2023-03-12T18:50:56.494Z,69.47
2023-03-12T19:01:03.652Z,68.36
2023-03-12T19:11:11.253Z,68.18
2023-03-12T19:21:18.428Z,68.08
2023-03-12T19:31:20.752Z,67.80
2023-03-12T19:41:23.056Z,67.38
2023-03-12T19:51:25.240Z,67.01
2023-03-12T20:01:33.393Z,67.65
2023-03-12T20:11:38.968Z,67.67
2023-03-12T20:21:48.489Z,67.91
2023-03-12T20:31:55.489Z,68.69
2023-03-12T20:41:57.750Z,69.94
2023-03-12T20:52:04.863Z,69.00
2023-03-12T21:02:07.396Z,69.13
2023-03-12T21:12:14.846Z,69.54
2023-03-12T21:22:19.219Z,69.44
2023-03-12T21:32:22.079Z,69.80
2023-03-12T21:42:30.539Z,70.82
2023-03-12T21:52:42.709Z,70.83
2023-03-12T22:02:59.222Z,70.74
2023-03-12T22:13:03.868Z,71.21
2023-03-12T22:23:07.737Z,72.48
2023-03-12T22:33:16.915Z,73.42
2023-03-12T22:43:21.562Z,74.63
2023-03-12T22:53:31.818Z,77.12
2023-03-12T23:03:40.801Z,78.41
2023-03-12T23:13:47.270Z,78.51
2023-03-12T23:23:53.204Z,78.19
2023-03-12T23:34:00.549Z,77.93
2023-03-12T23:44:05.955Z,75.79
2023-03-12T23:54:08.814Z,74.02
